sensor_id;sensor_type;location;lat;lon;timestamp;pressure;altitude;pressure_sealevel;temperature;humidity
78894;BME280;68282;42.698;23.350;2023-06-14T00:01:16;95151.34;;;18.86;72.01
78894;BME280;68282;42.698;23.350;2023-06-14T00:03:42;95157.09;;;18.90;71.78
78894;BME280;68282;42.698;23.350;2023-06-14T00:06:07;95156.25;;;18.94;72.03
78894;BME280;68282;42.698;23.350;2023-06-14T00:08:33;95152.38;;;18.95;72.30
78894;BME280;68282;42.698;23.350;2023-06-14T00:10:58;95154.59;;;18.93;72.48
78894;BME280;68282;42.698;23.350;2023-06-14T00:13:24;95143.28;;;18.95;72.51
78894;BME280;68282;42.698;23.350;2023-06-14T00:15:50;95145.22;;;18.94;72.80
78894;BME280;68282;42.698;23.350;2023-06-14T00:18:18;95142.50;;;18.89;72.83
78894;BME280;68282;42.698;23.350;2023-06-14T00:20:43;95141.06;;;18.92;72.61
78894;BME280;68282;42.698;23.350;2023-06-14T00:23:09;95142.78;;;18.88;73.11
78894;BME280;68282;42.698;23.350;2023-06-14T00:25:35;95124.41;;;18.83;72.89
78894;BME280;68282;42.698;23.350;2023-06-14T00:28:00;95143.91;;;18.87;72.82
78894;BME280;68282;42.698;23.350;2023-06-14T00:30:26;95134.75;;;18.91;72.33
78894;BME280;68282;42.698;23.350;2023-06-14T00:32:55;95135.84;;;18.95;72.62
78894;BME280;68282;42.698;23.350;2023-06-14T00:35:21;95137.75;;;18.95;72.71
78894;BME280;68282;42.698;23.350;2023-06-14T00:37:46;95136.41;;;18.92;72.55
78894;BME280;68282;42.698;23.350;2023-06-14T00:40:11;95131.44;;;18.94;72.32
78894;BME280;68282;42.698;23.350;2023-06-14T00:42:37;95130.03;;;18.92;72.61
78894;BME280;68282;42.698;23.350;2023-06-14T00:45:03;95132.81;;;18.92;72.39
78894;BME280;68282;42.698;23.350;2023-06-14T00:47:28;95122.88;;;18.91;72.36
78894;BME280;68282;42.698;23.350;2023-06-14T00:49:55;95128.13;;;18.92;72.53
78894;BME280;68282;42.698;23.350;2023-06-14T00:52:22;95120.75;;;18.88;72.54
78894;BME280;68282;42.698;23.350;2023-06-14T00:54:49;95115.25;;;18.88;72.69
78894;BME280;68282;42.698;23.350;2023-06-14T00:57:15;95128.41;;;18.91;72.58
78894;BME280;68282;42.698;23.350;2023-06-14T00:59:47;95124.84;;;18.90;72.64
78894;BME280;68282;42.698;23.350;2023-06-14T01:02:14;95125.66;;;18.91;72.76
78894;BME280;68282;42.698;23.350;2023-06-14T01:04:40;95124.84;;;18.90;72.50
78894;BME280;68282;42.698;23.350;2023-06-14T01:10:52;95120.81;;;18.82;72.89
78894;BME280;68282;42.698;23.350;2023-06-14T01:13:23;95124.44;;;18.78;72.38
78894;BME280;68282;42.698;23.350;2023-06-14T01:15:50;95126.63;;;18.81;71.96
78894;BME280;68282;42.698;23.350;2023-06-14T01:18:16;95122.53;;;18.78;71.87
78894;BME280;68282;42.698;23.350;2023-06-14T01:20:43;95126.63;;;18.81;72.30
78894;BME280;68282;42.698;23.350;2023-06-14T01:23:10;95127.06;;;18.88;72.37
78894;BME280;68282;42.698;23.350;2023-06-14T01:25:37;95123.19;;;18.89;72.84
78894;BME280;68282;42.698;23.350;2023-06-14T01:28:06;95124.03;;;18.90;72.27
78894;BME280;68282;42.698;23.350;2023-06-14T01:30:36;95128.72;;;18.89;72.29
78894;BME280;68282;42.698;23.350;2023-06-14T01:33:04;95129.81;;;18.88;72.24
78894;BME280;68282;42.698;23.350;2023-06-14T01:35:31;95126.78;;;18.90;72.15
78894;BME280;68282;42.698;23.350;2023-06-14T01:37:57;95121.28;;;18.90;72.09
78894;BME280;68282;42.698;23.350;2023-06-14T01:40:23;95121.56;;;18.88;72.16
78894;BME280;68282;42.698;23.350;2023-06-14T01:42:50;95118.81;;;18.88;72.03
78894;BME280;68282;42.698;23.350;2023-06-14T01:45:16;95118.81;;;18.88;71.91
78894;BME280;68282;42.698;23.350;2023-06-14T01:47:44;95114.41;;;18.87;71.76
78894;BME280;68282;42.698;23.350;2023-06-14T01:52:54;95118.28;;;18.86;72.15
78894;BME280;68282;42.698;23.350;2023-06-14T01:55:20;95119.69;;;18.83;71.93
78894;BME280;68282;42.698;23.350;2023-06-14T01:57:47;95125.56;;;18.77;72.09
78894;BME280;68282;42.698;23.350;2023-06-14T02:00:13;95128.03;;;18.78;72.04
78894;BME280;68282;42.698;23.350;2023-06-14T02:02:40;95132.44;;;18.79;71.49
78894;BME280;68282;42.698;23.350;2023-06-14T02:05:06;95128.63;;;18.75;71.69
78894;BME280;68282;42.698;23.350;2023-06-14T02:07:32;95132.50;;;18.74;71.47
78894;BME280;68282;42.698;23.350;2023-06-14T02:09:58;95138.31;;;18.73;71.37
78894;BME280;68282;42.698;23.350;2023-06-14T02:12:25;95132.31;;;18.65;71.54
78894;BME280;68282;42.698;23.350;2023-06-14T02:14:51;95142.22;;;18.66;71.48
78894;BME280;68282;42.698;23.350;2023-06-14T02:17:16;95152.72;;;18.64;71.94
78894;BME280;68282;42.698;23.350;2023-06-14T02:19:42;95152.44;;;18.66;71.61
78894;BME280;68282;42.698;23.350;2023-06-14T02:22:07;95144.41;;;18.69;71.53
78894;BME280;68282;42.698;23.350;2023-06-14T02:24:33;95144.94;;;18.72;71.82
78894;BME280;68282;42.698;23.350;2023-06-14T02:26:58;95147.38;;;18.73;71.96
78894;BME280;68282;42.698;23.350;2023-06-14T02:29:23;95147.97;;;18.70;71.56
78894;BME280;68282;42.698;23.350;2023-06-14T02:31:49;95151.25;;;18.72;71.54
78894;BME280;68282;42.698;23.350;2023-06-14T02:34:15;95154.84;;;18.73;71.75
78894;BME280;68282;42.698;23.350;2023-06-14T02:36:43;95154.53;;;18.74;71.56
78894;BME280;68282;42.698;23.350;2023-06-14T02:39:09;95156.19;;;18.75;71.96
78894;BME280;68282;42.698;23.350;2023-06-14T02:41:34;95150.13;;;18.73;71.99
78894;BME280;68282;42.698;23.350;2023-06-14T02:44:00;95155.47;;;18.64;71.72
78894;BME280;68282;42.698;23.350;2023-06-14T02:46:25;95160.75;;;18.61;71.41
78894;BME280;68282;42.698;23.350;2023-06-14T02:48:51;95155.53;;;18.59;71.76
78894;BME280;68282;42.698;23.350;2023-06-14T02:51:16;95153.03;;;18.63;72.06
78894;BME280;68282;42.698;23.350;2023-06-14T02:53:41;95153.25;;;18.66;72.07
78894;BME280;68282;42.698;23.350;2023-06-14T02:56:07;95153.81;;;18.63;72.20
78894;BME280;68282;42.698;23.350;2023-06-14T02:58:32;95157.94;;;18.66;71.60
78894;BME280;68282;42.698;23.350;2023-06-14T03:00:58;95163.69;;;18.69;71.60
78894;BME280;68282;42.698;23.350;2023-06-14T03:03:27;95164.56;;;18.65;71.72
78894;BME280;68282;42.698;23.350;2023-06-14T03:05:53;95164.84;;;18.63;71.43
78894;BME280;68282;42.698;23.350;2023-06-14T03:08:20;95165.69;;;18.64;71.24
78894;BME280;68282;42.698;23.350;2023-06-14T03:10:46;95163.72;;;18.64;71.23
78894;BME280;68282;42.698;23.350;2023-06-14T03:13:13;95168.13;;;18.65;71.20
78894;BME280;68282;42.698;23.350;2023-06-14T03:15:38;95171.72;;;18.66;71.22
78894;BME280;68282;42.698;23.350;2023-06-14T03:18:08;95164.03;;;18.63;71.26
78894;BME280;68282;42.698;23.350;2023-06-14T03:20:35;95172.06;;;18.59;71.29
78894;BME280;68282;42.698;23.350;2023-06-14T03:23:01;95173.75;;;18.55;71.68
78894;BME280;68282;42.698;23.350;2023-06-14T03:25:28;95172.34;;;18.58;71.57
78894;BME280;68282;42.698;23.350;2023-06-14T03:27:57;95175.41;;;18.56;71.27
78894;BME280;68282;42.698;23.350;2023-06-14T03:30:22;95171.00;;;18.55;71.52
78894;BME280;68282;42.698;23.350;2023-06-14T03:32:47;95176.63;;;18.45;71.85
78894;BME280;68282;42.698;23.350;2023-06-14T03:35:13;95174.72;;;18.45;72.08
78894;BME280;68282;42.698;23.350;2023-06-14T03:37:45;95182.16;;;18.45;71.72
78894;BME280;68282;42.698;23.350;2023-06-14T03:40:12;95171.13;;;18.45;71.85
78894;BME280;68282;42.698;23.350;2023-06-14T03:42:38;95178.84;;;18.43;71.69
78894;BME280;68282;42.698;23.350;2023-06-14T03:45:04;95180.28;;;18.40;71.68
78894;BME280;68282;42.698;23.350;2023-06-14T03:47:30;95182.72;;;18.42;71.46
78894;BME280;68282;42.698;23.350;2023-06-14T03:49:56;95184.91;;;18.45;71.43
78894;BME280;68282;42.698;23.350;2023-06-14T03:52:21;95172.47;;;18.47;71.70
78894;BME280;68282;42.698;23.350;2023-06-14T03:54:48;95186.19;;;18.52;72.08
78894;BME280;68282;42.698;23.350;2023-06-14T03:57:14;95181.22;;;18.54;71.83
78894;BME280;68282;42.698;23.350;2023-06-14T03:59:39;95178.75;;;18.53;72.27
78894;BME280;68282;42.698;23.350;2023-06-14T04:02:06;95183.97;;;18.54;71.88
78894;BME280;68282;42.698;23.350;2023-06-14T04:04:32;95183.97;;;18.54;71.42
78894;BME280;68282;42.698;23.350;2023-06-14T04:06:58;95185.09;;;18.53;71.91
78894;BME280;68282;42.698;23.350;2023-06-14T04:09:26;95188.06;;;18.57;71.81
78894;BME280;68282;42.698;23.350;2023-06-14T04:11:54;95186.88;;;18.63;71.25
78894;BME280;68282;42.698;23.350;2023-06-14T04:14:20;95183.13;;;18.54;71.19
78894;BME280;68282;42.698;23.350;2023-06-14T04:16:47;95181.22;;;18.54;71.40
78894;BME280;68282;42.698;23.350;2023-06-14T04:19:13;95182.03;;;18.55;71.12
78894;BME280;68282;42.698;23.350;2023-06-14T04:21:38;95181.44;;;18.58;71.29
78894;BME280;68282;42.698;23.350;2023-06-14T04:24:04;95184.44;;;18.62;71.40
78894;BME280;68282;42.698;23.350;2023-06-14T04:26:29;95184.66;;;18.65;71.83
78894;BME280;68282;42.698;23.350;2023-06-14T04:29:01;95188.47;;;18.69;71.97
78894;BME280;68282;42.698;23.350;2023-06-14T04:31:30;95184.63;;;18.70;72.18
78894;BME280;68282;42.698;23.350;2023-06-14T04:33:59;95195.63;;;18.70;71.67
78894;BME280;68282;42.698;23.350;2023-06-14T04:36:24;95189.00;;;18.72;71.63
78894;BME280;68282;42.698;23.350;2023-06-14T04:38:51;95188.72;;;18.73;71.77
78894;BME280;68282;42.698;23.350;2023-06-14T04:41:20;95189.53;;;18.74;71.20
78894;BME280;68282;42.698;23.350;2023-06-14T04:43:48;95183.41;;;18.77;71.45
78894;BME280;68282;42.698;23.350;2023-06-14T04:46:14;95190.53;;;18.83;71.71
78894;BME280;68282;42.698;23.350;2023-06-14T04:48:40;95194.41;;;18.82;71.74
78894;BME280;68282;42.698;23.350;2023-06-14T04:51:08;95189.47;;;18.79;70.91
78894;BME280;68282;42.698;23.350;2023-06-14T04:53:34;95192.22;;;18.79;70.86
78894;BME280;68282;42.698;23.350;2023-06-14T04:56:00;95198.25;;;18.81;70.22
78894;BME280;68282;42.698;23.350;2023-06-14T04:58:26;95203.41;;;18.88;70.36
78894;BME280;68282;42.698;23.350;2023-06-14T05:00:52;95205.28;;;18.92;70.48
78894;BME280;68282;42.698;23.350;2023-06-14T05:03:18;95207.78;;;18.94;71.26
78894;BME280;68282;42.698;23.350;2023-06-14T05:05:46;95198.69;;;18.93;71.16
78894;BME280;68282;42.698;23.350;2023-06-14T05:08:11;95205.84;;;18.94;70.67
78894;BME280;68282;42.698;23.350;2023-06-14T05:10:37;95214.38;;;18.93;70.60
78894;BME280;68282;42.698;23.350;2023-06-14T05:13:02;95212.16;;;18.95;70.08
78894;BME280;68282;42.698;23.350;2023-06-14T05:15:28;95216.03;;;18.94;70.01
78894;BME280;68282;42.698;23.350;2023-06-14T05:17:54;95212.16;;;18.95;70.36
78894;BME280;68282;42.698;23.350;2023-06-14T05:20:24;95216.56;;;18.96;70.15
78894;BME280;68282;42.698;23.350;2023-06-14T05:22:51;95205.25;;;18.97;70.81
78894;BME280;68282;42.698;23.350;2023-06-14T05:25:17;95217.09;;;18.98;71.15
78894;BME280;68282;42.698;23.350;2023-06-14T05:27:42;95215.09;;;19.04;70.97
78894;BME280;68282;42.698;23.350;2023-06-14T05:30:08;95225.28;;;19.03;70.43
78894;BME280;68282;42.698;23.350;2023-06-14T05:32:34;95228.31;;;19.07;70.85
78894;BME280;68282;42.698;23.350;2023-06-14T05:34:59;95225.53;;;19.07;70.57
78894;BME280;68282;42.698;23.350;2023-06-14T05:37:25;95238.50;;;19.06;70.31
78894;BME280;68282;42.698;23.350;2023-06-14T05:39:50;95237.06;;;19.09;69.69
78894;BME280;68282;42.698;23.350;2023-06-14T05:42:16;95232.09;;;19.11;68.85
78894;BME280;68282;42.698;23.350;2023-06-14T05:44:41;95241.19;;;19.11;69.38
78894;BME280;68282;42.698;23.350;2023-06-14T05:47:07;95237.03;;;19.14;69.00
78894;BME280;68282;42.698;23.350;2023-06-14T05:49:32;95243.66;;;19.13;69.24
78894;BME280;68282;42.698;23.350;2023-06-14T05:51:57;95240.88;;;19.13;69.42
78894;BME280;68282;42.698;23.350;2023-06-14T05:54:23;95238.94;;;19.13;69.34
78894;BME280;68282;42.698;23.350;2023-06-14T05:56:48;95239.81;;;19.09;70.20
78894;BME280;68282;42.698;23.350;2023-06-14T05:59:13;95240.09;;;19.12;70.26
78894;BME280;68282;42.698;23.350;2023-06-14T06:01:39;95245.88;;;19.11;70.40
78894;BME280;68282;42.698;23.350;2023-06-14T06:04:05;95243.59;;;19.18;70.33
78894;BME280;68282;42.698;23.350;2023-06-14T06:06:31;95243.34;;;19.14;70.27
78894;BME280;68282;42.698;23.350;2023-06-14T06:08:57;95246.34;;;19.18;70.07
78894;BME280;68282;42.698;23.350;2023-06-14T06:11:23;95245.22;;;19.19;69.79
78894;BME280;68282;42.698;23.350;2023-06-14T06:13:48;95247.38;;;19.22;69.84
78894;BME280;68282;42.698;23.350;2023-06-14T06:16:14;95249.25;;;19.27;69.68
78894;BME280;68282;42.698;23.350;2023-06-14T06:18:40;95243.34;;;19.14;69.58
78894;BME280;68282;42.698;23.350;2023-06-14T06:21:05;95249.03;;;19.23;69.79
78894;BME280;68282;42.698;23.350;2023-06-14T06:23:31;95247.47;;;19.17;69.37
78894;BME280;68282;42.698;23.350;2023-06-14T06:25:57;95244.25;;;19.29;69.77
78894;BME280;68282;42.698;23.350;2023-06-14T06:28:22;95249.47;;;19.30;70.08
78894;BME280;68282;42.698;23.350;2023-06-14T06:30:48;95254.41;;;19.34;69.20
78894;BME280;68282;42.698;23.350;2023-06-14T06:33:13;95252.41;;;19.39;69.43
78894;BME280;68282;42.698;23.350;2023-06-14T06:35:39;95256.50;;;19.42;69.20
78894;BME280;68282;42.698;23.350;2023-06-14T06:38:05;95265.28;;;19.44;68.38
78894;BME280;68282;42.698;23.350;2023-06-14T06:40:31;95259.25;;;19.42;68.56
78894;BME280;68282;42.698;23.350;2023-06-14T06:42:56;95251.59;;;19.39;68.76
78894;BME280;68282;42.698;23.350;2023-06-14T06:45:22;95261.19;;;19.41;69.11
78894;BME280;68282;42.698;23.350;2023-06-14T06:47:48;95255.59;;;19.46;67.83
78894;BME280;68282;42.698;23.350;2023-06-14T06:50:14;95256.75;;;19.45;67.94
78894;BME280;68282;42.698;23.350;2023-06-14T06:52:39;95253.69;;;19.47;68.04
78894;BME280;68282;42.698;23.350;2023-06-14T06:55:05;95255.91;;;19.45;69.17
78894;BME280;68282;42.698;23.350;2023-06-14T06:57:31;95257.84;;;19.44;69.48
78894;BME280;68282;42.698;23.350;2023-06-14T06:59:57;95256.97;;;19.49;69.65
78894;BME280;68282;42.698;23.350;2023-06-14T07:02:22;95264.34;;;19.54;69.95
78894;BME280;68282;42.698;23.350;2023-06-14T07:04:47;95261.28;;;19.55;69.74
78894;BME280;68282;42.698;23.350;2023-06-14T07:07:13;95265.50;;;19.47;69.11
78894;BME280;68282;42.698;23.350;2023-06-14T07:09:38;95256.13;;;19.49;69.44
78894;BME280;68282;42.698;23.350;2023-06-14T07:12:04;95264.13;;;19.50;69.72
78894;BME280;68282;42.698;23.350;2023-06-14T07:14:30;95266.78;;;19.55;70.21
78894;BME280;68282;42.698;23.350;2023-06-14T07:16:55;95265.09;;;19.59;70.52
78894;BME280;68282;42.698;23.350;2023-06-14T07:19:21;95262.25;;;19.65;70.43
78894;BME280;68282;42.698;23.350;2023-06-14T07:21:46;95260.53;;;19.69;70.61
78894;BME280;68282;42.698;23.350;2023-06-14T07:24:12;95259.13;;;19.71;70.31
78894;BME280;68282;42.698;23.350;2023-06-14T07:26:37;95262.19;;;19.70;69.89
78894;BME280;68282;42.698;23.350;2023-06-14T07:29:03;95259.13;;;19.71;69.83
78894;BME280;68282;42.698;23.350;2023-06-14T07:31:28;95256.88;;;19.73;68.77
78894;BME280;68282;42.698;23.350;2023-06-14T07:33:53;95256.19;;;19.62;68.02
78894;BME280;68282;42.698;23.350;2023-06-14T07:36:19;95253.38;;;19.68;67.88
78894;BME280;68282;42.698;23.350;2023-06-14T07:38:45;95253.59;;;19.71;68.14
78894;BME280;68282;42.698;23.350;2023-06-14T07:41:11;95246.38;;;19.75;68.45
78894;BME280;68282;42.698;23.350;2023-06-14T07:43:36;95253.66;;;19.85;67.42
78894;BME280;68282;42.698;23.350;2023-06-14T07:46:02;95244.56;;;19.85;67.00
78894;BME280;68282;42.698;23.350;2023-06-14T07:48:27;95250.88;;;19.90;66.49
78894;BME280;68282;42.698;23.350;2023-06-14T07:50:53;95248.91;;;19.91;66.46
78894;BME280;68282;42.698;23.350;2023-06-14T07:53:18;95260.47;;;19.93;67.27
78894;BME280;68282;42.698;23.350;2023-06-14T07:55:44;95263.22;;;19.93;68.61
78894;BME280;68282;42.698;23.350;2023-06-14T07:58:09;95262.78;;;20.05;68.98
78894;BME280;68282;42.698;23.350;2023-06-14T08:00:36;95267.09;;;20.11;68.07
78894;BME280;68282;42.698;23.350;2023-06-14T08:03:01;95261.41;;;20.21;67.82
78894;BME280;68282;42.698;23.350;2023-06-14T08:05:27;95265.72;;;20.28;67.44
78894;BME280;68282;42.698;23.350;2023-06-14T08:07:54;95269.81;;;20.30;65.77
78894;BME280;68282;42.698;23.350;2023-06-14T08:10:20;95270.25;;;20.37;66.03
78894;BME280;68282;42.698;23.350;2023-06-14T08:12:46;95273.91;;;20.33;65.66
78894;BME280;68282;42.698;23.350;2023-06-14T08:15:11;95281.28;;;20.37;66.09
78894;BME280;68282;42.698;23.350;2023-06-14T08:17:37;95285.84;;;20.47;65.88
78894;BME280;68282;42.698;23.350;2023-06-14T08:20:03;95276.59;;;20.38;65.60
78894;BME280;68282;42.698;23.350;2023-06-14T08:22:31;95283.47;;;20.41;64.22
78894;BME280;68282;42.698;23.350;2023-06-14T08:25:00;95287.03;;;20.41;63.82
78894;BME280;68282;42.698;23.350;2023-06-14T08:27:26;95286.84;;;20.51;64.54
78894;BME280;68282;42.698;23.350;2023-06-14T08:29:51;95286.56;;;20.53;64.96
78894;BME280;68282;42.698;23.350;2023-06-14T08:32:17;95293.09;;;20.57;64.27
78894;BME280;68282;42.698;23.350;2023-06-14T08:34:42;95284.53;;;20.59;64.30
78894;BME280;68282;42.698;23.350;2023-06-14T08:37:08;95292.31;;;20.57;63.36
78894;BME280;68282;42.698;23.350;2023-06-14T08:39:33;95287.81;;;20.61;62.96
78894;BME280;68282;42.698;23.350;2023-06-14T08:42:01;95278.91;;;20.64;61.52
78894;BME280;68282;42.698;23.350;2023-06-14T08:44:27;95281.13;;;20.62;61.15
78894;BME280;68282;42.698;23.350;2023-06-14T08:46:55;95270.59;;;20.64;62.20
78894;BME280;68282;42.698;23.350;2023-06-14T08:49:22;95264.69;;;20.70;63.25
78894;BME280;68282;42.698;23.350;2023-06-14T08:54:17;95263.19;;;20.78;61.85
78894;BME280;68282;42.698;23.350;2023-06-14T08:56:46;95268.31;;;20.85;61.97
78894;BME280;68282;42.698;23.350;2023-06-14T08:59:16;95265.88;;;20.83;61.87
78894;BME280;68282;42.698;23.350;2023-06-14T09:01:43;95265.16;;;20.78;63.18
78894;BME280;68282;42.698;23.350;2023-06-14T09:04:10;95263.81;;;20.75;62.49
78894;BME280;68282;42.698;23.350;2023-06-14T09:06:36;95268.94;;;20.82;63.21
78894;BME280;68282;42.698;23.350;2023-06-14T09:09:02;95269.53;;;20.79;61.91
78894;BME280;68282;42.698;23.350;2023-06-14T09:11:30;95265.28;;;20.67;63.07
78894;BME280;68282;42.698;23.350;2023-06-14T09:13:55;95255.78;;;20.74;62.34
78894;BME280;68282;42.698;23.350;2023-06-14T09:16:21;95256.03;;;20.77;62.30
78894;BME280;68282;42.698;23.350;2023-06-14T09:18:47;95245.66;;;20.69;62.07
78894;BME280;68282;42.698;23.350;2023-06-14T09:21:14;95242.22;;;20.77;62.65
78894;BME280;68282;42.698;23.350;2023-06-14T09:23:42;95255.22;;;20.91;62.68
78894;BME280;68282;42.698;23.350;2023-06-14T09:28:36;95251.41;;;21.00;61.99
78894;BME280;68282;42.698;23.350;2023-06-14T09:31:07;95254.50;;;20.99;62.44
78894;BME280;68282;42.698;23.350;2023-06-14T09:33:33;95246.81;;;20.96;61.76
78894;BME280;68282;42.698;23.350;2023-06-14T09:35:59;95247.75;;;21.05;61.79
78894;BME280;68282;42.698;23.350;2023-06-14T09:38:24;95255.63;;;21.12;62.36
78894;BME280;68282;42.698;23.350;2023-06-14T09:40:50;95247.22;;;21.17;62.18
78894;BME280;68282;42.698;23.350;2023-06-14T09:43:17;95239.09;;;21.35;60.04
78894;BME280;68282;42.698;23.350;2023-06-14T09:45:44;95238.81;;;21.36;58.48
78894;BME280;68282;42.698;23.350;2023-06-14T09:48:11;95224.94;;;21.50;59.51
78894;BME280;68282;42.698;23.350;2023-06-14T09:50:37;95225.31;;;21.57;59.99
78894;BME280;68282;42.698;23.350;2023-06-14T09:53:06;95232.25;;;21.60;58.98
78894;BME280;68282;42.698;23.350;2023-06-14T09:55:35;95229.34;;;21.65;59.03
78894;BME280;68282;42.698;23.350;2023-06-14T09:58:05;95231.50;;;21.68;60.09
78894;BME280;68282;42.698;23.350;2023-06-14T10:00:32;95222.34;;;21.68;59.08
78894;BME280;68282;42.698;23.350;2023-06-14T10:03:03;95222.38;;;21.54;57.39
78894;BME280;68282;42.698;23.350;2023-06-14T10:05:31;95216.31;;;21.52;58.57
78894;BME280;68282;42.698;23.350;2023-06-14T10:08:08;95208.53;;;21.54;58.61
78894;BME280;68282;42.698;23.350;2023-06-14T10:10:34;95215.38;;;21.56;58.88
78894;BME280;68282;42.698;23.350;2023-06-14T10:13:00;95214.56;;;21.56;59.02
78894;BME280;68282;42.698;23.350;2023-06-14T10:18:02;95207.34;;;21.60;58.91
78894;BME280;68282;42.698;23.350;2023-06-14T10:20:50;95204.81;;;21.72;58.05
78894;BME280;68282;42.698;23.350;2023-06-14T10:23:20;95201.88;;;21.91;57.43
78894;BME280;68282;42.698;23.350;2023-06-14T10:25:49;95196.31;;;21.91;57.64
78894;BME280;68282;42.698;23.350;2023-06-14T10:28:20;95201.56;;;21.93;57.81
78894;BME280;68282;42.698;23.350;2023-06-14T10:31:06;95199.50;;;21.99;59.14
78894;BME280;68282;42.698;23.350;2023-06-14T10:33:56;95195.38;;;21.96;57.68
78894;BME280;68282;42.698;23.350;2023-06-14T10:39:00;95198.19;;;22.28;56.71
78894;BME280;68282;42.698;23.350;2023-06-14T10:41:29;95193.84;;;22.35;57.05
78894;BME280;68282;42.698;23.350;2023-06-14T10:46:48;95183.09;;;22.65;55.60
78894;BME280;68282;42.698;23.350;2023-06-14T10:49:36;95181.03;;;22.80;54.91
78894;BME280;68282;42.698;23.350;2023-06-14T10:52:16;95177.13;;;22.81;54.75
78894;BME280;68282;42.698;23.350;2023-06-14T10:55:10;95173.00;;;22.69;55.66
78894;BME280;68282;42.698;23.350;2023-06-14T10:57:42;95170.03;;;22.66;55.40
78894;BME280;68282;42.698;23.350;2023-06-14T11:00:09;95169.38;;;22.60;55.35
78894;BME280;68282;42.698;23.350;2023-06-14T11:05:51;95162.50;;;22.49;55.31
78894;BME280;68282;42.698;23.350;2023-06-14T11:11:13;95151.50;;;22.84;55.77
78894;BME280;68282;42.698;23.350;2023-06-14T11:13:41;95153.03;;;23.08;55.05
78894;BME280;68282;42.698;23.350;2023-06-14T11:16:14;95153.78;;;23.40;55.43
78894;BME280;68282;42.698;23.350;2023-06-14T11:18:40;95153.13;;;23.60;54.26
78894;BME280;68282;42.698;23.350;2023-06-14T11:23:55;95158.34;;;23.88;50.43
78894;BME280;68282;42.698;23.350;2023-06-14T11:26:25;95150.03;;;23.97;50.71
78894;BME280;68282;42.698;23.350;2023-06-14T11:28:55;95141.53;;;24.11;50.77
78894;BME280;68282;42.698;23.350;2023-06-14T11:31:22;95137.25;;;24.14;50.09
78894;BME280;68282;42.698;23.350;2023-06-14T11:33:50;95132.47;;;24.32;50.69
78894;BME280;68282;42.698;23.350;2023-06-14T11:36:15;95132.59;;;24.44;49.34
78894;BME280;68282;42.698;23.350;2023-06-14T11:38:42;95144.97;;;24.55;48.67
78894;BME280;68282;42.698;23.350;2023-06-14T11:41:07;95136.59;;;24.73;48.78
78894;BME280;68282;42.698;23.350;2023-06-14T11:43:32;95134.25;;;24.84;49.00
78894;BME280;68282;42.698;23.350;2023-06-14T11:46:00;95133.66;;;24.99;47.49
78894;BME280;68282;42.698;23.350;2023-06-14T11:48:40;95124.69;;;24.94;48.10
78894;BME280;68282;42.698;23.350;2023-06-14T11:51:05;95123.94;;;24.84;48.76
78894;BME280;68282;42.698;23.350;2023-06-14T11:53:31;95119.81;;;24.91;46.50
78894;BME280;68282;42.698;23.350;2023-06-14T11:55:57;95113.84;;;24.71;48.23
78894;BME280;68282;42.698;23.350;2023-06-14T11:58:23;95106.84;;;24.56;48.67
78894;BME280;68282;42.698;23.350;2023-06-14T12:00:49;95115.13;;;24.35;50.04
78894;BME280;68282;42.698;23.350;2023-06-14T12:03:15;95107.66;;;24.18;47.98
78894;BME280;68282;42.698;23.350;2023-06-14T12:05:40;95092.16;;;24.08;48.87
78894;BME280;68282;42.698;23.350;2023-06-14T12:08:06;95102.13;;;24.18;49.10
78894;BME280;68282;42.698;23.350;2023-06-14T12:10:40;95095.97;;;24.42;48.86
78894;BME280;68282;42.698;23.350;2023-06-14T12:13:06;95100.13;;;24.66;49.43
78894;BME280;68282;42.698;23.350;2023-06-14T12:15:31;95085.50;;;24.78;46.72
78894;BME280;68282;42.698;23.350;2023-06-14T12:18:00;95082.97;;;24.94;45.92
78894;BME280;68282;42.698;23.350;2023-06-14T12:20:29;95076.81;;;25.09;45.04
78894;BME280;68282;42.698;23.350;2023-06-14T12:22:56;95070.19;;;25.23;46.78
78894;BME280;68282;42.698;23.350;2023-06-14T12:25:33;95064.50;;;25.31;46.11
78894;BME280;68282;42.698;23.350;2023-06-14T12:28:07;95071.94;;;25.49;47.74
78894;BME280;68282;42.698;23.350;2023-06-14T12:30:36;95076.28;;;25.58;46.85
78894;BME280;68282;42.698;23.350;2023-06-14T12:33:05;95073.16;;;25.60;46.56
78894;BME280;68282;42.698;23.350;2023-06-14T12:35:31;95069.84;;;25.45;47.31
78894;BME280;68282;42.698;23.350;2023-06-14T12:37:56;95063.03;;;25.34;46.67
78894;BME280;68282;42.698;23.350;2023-06-14T12:40:22;95066.25;;;25.24;48.23
78894;BME280;68282;42.698;23.350;2023-06-14T12:42:47;95065.69;;;25.09;49.04
78894;BME280;68282;42.698;23.350;2023-06-14T12:45:13;95060.16;;;25.00;47.06
78894;BME280;68282;42.698;23.350;2023-06-14T12:47:39;95055.28;;;24.97;46.52
78894;BME280;68282;42.698;23.350;2023-06-14T12:50:05;95052.03;;;24.95;47.87
78894;BME280;68282;42.698;23.350;2023-06-14T12:52:31;95052.72;;;24.92;48.01
78894;BME280;68282;42.698;23.350;2023-06-14T12:54:56;95049.97;;;24.83;49.39
78894;BME280;68282;42.698;23.350;2023-06-14T12:57:23;95049.88;;;24.71;50.25
78894;BME280;68282;42.698;23.350;2023-06-14T12:59:48;95047.31;;;24.57;50.19
78894;BME280;68282;42.698;23.350;2023-06-14T13:02:18;95052.91;;;24.48;49.86
78894;BME280;68282;42.698;23.350;2023-06-14T13:04:43;95055.28;;;24.37;49.45
78894;BME280;68282;42.698;23.350;2023-06-14T13:07:09;95057.56;;;24.35;49.59
78894;BME280;68282;42.698;23.350;2023-06-14T13:09:36;95059.06;;;24.33;47.77
78894;BME280;68282;42.698;23.350;2023-06-14T13:12:02;95049.44;;;24.30;47.93
78894;BME280;68282;42.698;23.350;2023-06-14T13:14:27;95043.25;;;24.24;48.69
78894;BME280;68282;42.698;23.350;2023-06-14T13:16:53;95050.06;;;24.36;46.37